Time;durP1;ratioP1;P1;durP2;ratioP2;P2;SDS_P1;SDS_P2;PMS_P1;PMS_P2;Temp;Humidity;BMP_temperature;BMP_pressure;BME280_temperature;BME280_humidity;BME280_pressure;Samples;Min_cycle;Max_cycle;Signal;HPM_P1;HPM_P2
2022/12/08 00:01:37;;;;;;;;;;;2.60;99.90;;;;;;5069559;28;20120;-71
2022/12/08 00:04:04;;;;;;;1.15;0.63;;;2.60;99.90;;;;;;5056057;28;20057;-71
2022/12/08 00:09:34;;;;;;;1.25;0.40;;;2.60;99.90;;;;;;5055232;28;19940;-71
2022/12/08 00:12:03;;;;;;;1.08;0.35;;;2.60;99.90;;;;;;5070854;28;20033;-71
2022/12/08 00:14:34;;;;;;;0.63;0.30;;;2.70;99.90;;;;;;5069532;28;20090;-71
2022/12/08 00:17:01;;;;;;;1.52;0.32;;;2.70;99.90;;;;;;5071979;28;20037;-71
2022/12/08 00:19:27;;;;;;;1.38;0.30;;;2.60;99.90;;;;;;5053377;28;20049;-71
2022/12/08 00:21:53;;;;;;;2.22;0.52;;;2.70;99.90;;;;;;5051751;28;20109;-72
2022/12/08 00:24:20;;;;;;;1.73;0.50;;;2.60;99.90;;;;;;5053938;28;20079;-72
2022/12/08 00:26:46;;;;;;;2.67;0.57;;;2.70;99.90;;;;;;5051894;28;20051;-71
2022/12/08 00:29:12;;;;;;;4.00;0.80;;;2.80;99.90;;;;;;5068930;28;20044;-71
2022/12/08 00:31:38;;;;;;;;;;;2.80;99.90;;;;;;5070007;28;20132;-71
2022/12/08 00:34:04;;;;;;;3.15;0.70;;;2.70;99.90;;;;;;5052353;28;20055;-72
2022/12/08 00:36:30;;;;;;;1.48;0.45;;;2.70;99.90;;;;;;5019003;28;20515;-71
2022/12/08 00:38:56;;;;;;;;;;;2.60;99.90;;;;;;5035934;28;20052;-72
2022/12/08 00:44:10;;;;;;;2.03;0.60;;;2.60;99.90;;;;;;5071897;28;20040;-72
2022/12/08 00:46:36;;;;;;;1.48;0.50;;;2.70;99.90;;;;;;5054692;28;20043;-72
2022/12/08 00:49:03;;;;;;;1.65;0.47;;;2.70;99.90;;;;;;5071155;28;20053;-72
2022/12/08 00:51:29;;;;;;;1.75;0.50;;;2.60;99.90;;;;;;5071974;28;20048;-71
2022/12/08 00:53:54;;;;;;;2.22;0.60;;;2.70;99.90;;;;;;5073347;28;20359;-72
2022/12/08 00:56:20;;;;;;;0.93;0.47;;;2.60;99.90;;;;;;5054992;28;20068;-72
2022/12/08 00:58:46;;;;;;;1.77;0.60;;;2.60;99.90;;;;;;5054411;28;20421;-72
2022/12/08 01:01:13;;;;;;;1.80;0.55;;;2.60;99.90;;;;;;5071039;28;20044;-72
2022/12/08 01:03:39;;;;;;;2.03;0.50;;;2.60;99.90;;;;;;5054726;28;20040;-71
2022/12/08 01:06:05;;;;;;;;;;;2.60;99.90;;;;;;5043797;28;20550;-71
2022/12/08 01:08:31;;;;;;;2.45;0.70;;;2.60;99.90;;;;;;5071392;28;19916;-71
2022/12/08 01:11:03;;;;;;;2.28;0.60;;;2.50;99.90;;;;;;5054603;28;20057;-71
2022/12/08 01:13:28;;;;;;;2.40;0.57;;;2.60;99.90;;;;;;5071756;28;20769;-71
2022/12/08 01:15:54;;;;;;;1.35;0.47;;;2.60;99.90;;;;;;5065314;28;20049;-71
2022/12/08 01:18:20;;;;;;;1.33;0.40;;;2.60;99.90;;;;;;5067918;28;20049;-71
2022/12/08 01:20:45;;;;;;;2.03;0.50;;;2.50;99.90;;;;;;5050945;28;20469;-71
2022/12/08 01:23:11;;;;;;;0.67;0.37;;;2.60;99.90;;;;;;5078904;28;20711;-71
2022/12/08 01:25:37;;;;;;;1.27;0.50;;;2.60;99.90;;;;;;5052248;28;20275;-71
2022/12/08 01:28:03;;;;;;;2.03;0.38;;;2.50;99.90;;;;;;5067711;28;20481;-71
2022/12/08 01:30:28;;;;;;;1.58;0.47;;;2.60;99.90;;;;;;5084360;28;20453;-71
2022/12/08 01:32:54;;;;;;;1.85;0.40;;;2.60;99.90;;;;;;5065464;28;20131;-70
2022/12/08 01:35:20;;;;;;;1.73;0.47;;;2.60;99.90;;;;;;5071884;28;20045;-71
2022/12/08 01:37:46;;;;;;;1.13;0.30;;;2.60;99.90;;;;;;5055978;28;20097;-71
2022/12/08 01:40:11;;;;;;;1.93;0.53;;;2.60;99.90;;;;;;5066332;28;20311;-71
2022/12/08 01:42:37;;;;;;;0.73;0.40;;;2.60;99.90;;;;;;5070184;28;20295;-71
2022/12/08 01:45:25;;;;;;;1.63;0.40;;;2.70;99.90;;;;;;5032932;28;20043;-72
2022/12/08 01:47:59;;;;;;;2.47;0.45;;;2.70;99.90;;;;;;5065132;28;20134;-71
2022/12/08 01:50:26;;;;;;;2.47;0.40;;;2.80;99.90;;;;;;5034223;28;20033;-73
2022/12/08 01:52:57;;;;;;;1.83;0.40;;;2.80;99.90;;;;;;5052241;28;20040;-73
2022/12/08 01:55:32;;;;;;;0.73;0.20;;;2.80;99.90;;;;;;5054301;28;20040;-73
2022/12/08 01:58:10;;;;;;;2.55;0.40;;;2.90;99.90;;;;;;5067380;28;20253;-73
2022/12/08 02:00:36;;;;;;;1.15;0.50;;;2.90;99.90;;;;;;5049790;28;20071;-73
2022/12/08 02:03:07;;;;;;;3.22;0.70;;;2.70;99.90;;;;;;5050692;28;20480;-72
2022/12/08 02:05:37;;;;;;;1.02;0.50;;;2.80;99.90;;;;;;5058434;28;20078;-72
2022/12/08 02:08:08;;;;;;;3.08;0.50;;;2.80;99.90;;;;;;5051634;28;20059;-72
2022/12/08 02:10:37;;;;;;;1.33;0.50;;;2.80;99.90;;;;;;5073182;28;20052;-73
2022/12/08 02:13:06;;;;;;;0.95;0.40;;;2.80;99.90;;;;;;5051044;28;20106;-72
2022/12/08 02:15:43;;;;;;;0.90;0.30;;;2.70;99.90;;;;;;5050895;28;20106;-73
2022/12/08 02:18:29;;;;;;;1.58;0.60;;;2.70;99.90;;;;;;5043384;28;20044;-72
2022/12/08 02:21:14;;;;;;;0.73;0.38;;;2.70;99.90;;;;;;5044204;28;20137;-72
2022/12/08 02:23:45;;;;;;;2.30;0.30;;;2.80;99.90;;;;;;5066393;28;20093;-72
2022/12/08 02:26:10;;;;;;;1.90;0.50;;;2.70;99.90;;;;;;5067919;28;20040;-72
2022/12/08 02:29:00;;;;;;;0.60;0.40;;;2.80;99.90;;;;;;5069789;28;20127;-72
2022/12/08 02:32:10;;;;;;;0.57;0.35;;;2.80;99.90;;;;;;5029242;28;20099;-73
2022/12/08 02:35:02;;;;;;;1.70;0.40;;;2.80;99.90;;;;;;4991704;28;20068;-72
2022/12/08 02:37:36;;;;;;;1.50;0.70;;;2.60;99.90;;;;;;4992678;28;20073;-72
2022/12/08 02:40:14;;;;;;;1.15;0.40;;;2.50;99.90;;;;;;5046210;28;20057;-72
2022/12/08 02:43:06;;;;;;;1.25;0.50;;;2.50;99.90;;;;;;5058738;28;20033;-72
2022/12/08 02:45:44;;;;;;;0.82;0.38;;;2.50;99.90;;;;;;5049805;28;20114;-72
2022/12/08 02:48:10;;;;;;;0.15;0.10;;;2.50;99.90;;;;;;5067994;28;20040;-72
2022/12/08 02:50:36;;;;;;;0.17;0.17;;;2.40;99.90;;;;;;5069401;28;20051;-72
2022/12/08 02:53:02;;;;;;;0.75;0.20;;;2.40;99.90;;;;;;5062449;28;20131;-73
2022/12/08 02:55:39;;;;;;;0.00;0.00;;;2.50;99.90;;;;;;5061100;28;20079;-72
2022/12/08 02:58:23;;;;;;;0.08;0.00;;;2.30;99.90;;;;;;5063381;28;20492;-72
2022/12/08 03:01:14;;;;;;;0.30;0.10;;;2.40;99.90;;;;;;5052683;28;20128;-72
2022/12/08 03:03:46;;;;;;;0.10;0.10;;;2.30;99.90;;;;;;5030348;28;20037;-72
2022/12/08 03:06:18;;;;;;;0.10;0.00;;;2.40;99.90;;;;;;5067022;28;20048;-73
2022/12/08 03:08:46;;;;;;;0.20;0.10;;;2.40;99.90;;;;;;5059301;28;20102;-73
2022/12/08 03:11:21;;;;;;;0.55;0.10;;;2.40;99.90;;;;;;5053445;28;20053;-73
2022/12/08 03:13:51;;;;;;;0.30;0.10;;;2.40;99.90;;;;;;5056585;28;20088;-72
2022/12/08 03:16:21;;;;;;;0.10;0.10;;;2.30;99.90;;;;;;5053240;28;20045;-73
2022/12/08 03:18:59;;;;;;;0.10;0.10;;;2.40;99.90;;;;;;5068730;28;20040;-75
2022/12/08 03:21:25;;;;;;;0.43;0.20;;;2.30;99.90;;;;;;5061138;28;20059;-73
2022/12/08 03:23:54;;;;;;;0.85;0.20;;;2.40;99.90;;;;;;5045121;28;20053;-73
2022/12/08 03:26:33;;;;;;;0.20;0.20;;;2.50;99.90;;;;;;5048968;28;20036;-72
2022/12/08 03:28:59;;;;;;;0.90;0.20;;;2.30;99.90;;;;;;5052262;28;20048;-73
2022/12/08 03:31:28;;;;;;;0.40;0.40;;;2.30;99.90;;;;;;5043510;28;20048;-73
2022/12/08 03:33:57;;;;;;;0.30;0.30;;;2.40;99.90;;;;;;5049083;28;20059;-72
2022/12/08 03:36:23;;;;;;;0.50;0.30;;;2.40;99.90;;;;;;5053971;28;20037;-73
2022/12/08 03:38:52;;;;;;;1.98;0.45;;;2.50;99.90;;;;;;5048671;28;20075;-73
2022/12/08 03:41:18;;;;;;;2.22;0.60;;;2.40;99.90;;;;;;5064805;28;20060;-72
2022/12/08 03:43:48;;;;;;;;;;;2.40;99.90;;;;;;5066913;28;20123;-72
2022/12/08 03:46:15;;;;;;;0.70;0.52;;;2.60;99.90;;;;;;5049489;28;20314;-72
2022/12/08 03:48:41;;;;;;;2.05;0.50;;;2.40;99.90;;;;;;5048672;28;20576;-72
2022/12/08 03:51:07;;;;;;;2.00;0.60;;;2.50;99.90;;;;;;5056636;28;20485;-72
2022/12/08 03:53:33;;;;;;;0.70;0.50;;;2.50;99.90;;;;;;5045699;28;20048;-73
2022/12/08 03:55:58;;;;;;;0.60;0.40;;;2.50;99.90;;;;;;5064641;28;20060;-73
2022/12/08 03:58:24;;;;;;;0.50;0.45;;;2.30;99.90;;;;;;5058215;28;20056;-73
2022/12/08 04:00:50;;;;;;;1.13;0.35;;;2.50;99.90;;;;;;5057776;28;20107;-73
2022/12/08 04:03:15;;;;;;;0.80;0.30;;;2.30;99.90;;;;;;5048966;28;20045;-72
2022/12/08 04:05:41;;;;;;;0.40;0.30;;;2.40;99.90;;;;;;5056099;28;20092;-73
2022/12/08 04:08:07;;;;;;;0.88;0.40;;;2.30;99.90;;;;;;5067861;28;20045;-73
2022/12/08 04:10:32;;;;;;;0.75;0.30;;;2.30;99.90;;;;;;5062488;28;20041;-73
2022/12/08 04:12:58;;;;;;;0.40;0.40;;;2.30;99.90;;;;;;5059917;28;20051;-73
2022/12/08 04:15:24;;;;;;;1.95;0.57;;;2.40;99.90;;;;;;5062216;28;20036;-72
2022/12/08 04:17:49;;;;;;;0.73;0.38;;;2.40;99.90;;;;;;5035810;28;20076;-73
2022/12/08 04:20:15;;;;;;;2.60;0.50;;;2.40;99.90;;;;;;5053455;28;20063;-73
2022/12/08 04:22:41;;;;;;;0.77;0.40;;;2.50;99.90;;;;;;5063675;28;20302;-72
2022/12/08 04:25:07;;;;;;;1.50;0.30;;;2.30;99.90;;;;;;5072930;28;20345;-72
2022/12/08 04:27:32;;;;;;;1.00;0.30;;;2.30;99.90;;;;;;5056077;28;20314;-72
2022/12/08 04:29:58;;;;;;;0.70;0.43;;;2.30;99.90;;;;;;5070458;28;20507;-72
2022/12/08 04:32:24;;;;;;;2.10;0.50;;;2.40;99.90;;;;;;5054231;28;20303;-72
2022/12/08 04:34:49;;;;;;;0.75;0.20;;;2.40;99.90;;;;;;5055409;28;20055;-72
2022/12/08 04:37:15;;;;;;;1.55;0.40;;;2.60;99.90;;;;;;5073726;28;20113;-72
2022/12/08 04:39:40;;;;;;;0.65;0.30;;;2.50;99.90;;;;;;5054210;28;20056;-73
2022/12/08 04:42:06;;;;;;;0.55;0.20;;;2.50;99.90;;;;;;5057975;28;20044;-72
2022/12/08 04:44:32;;;;;;;0.55;0.30;;;2.60;99.90;;;;;;5035163;28;20428;-72
2022/12/08 04:46:57;;;;;;;1.40;0.30;;;2.60;99.90;;;;;;5059085;28;20108;-72
2022/12/08 04:49:23;;;;;;;1.17;0.25;;;2.60;99.90;;;;;;5070808;28;20182;-72
2022/12/08 04:51:49;;;;;;;1.58;0.32;;;2.60;99.90;;;;;;5070394;28;20606;-73
2022/12/08 04:54:14;;;;;;;0.63;0.20;;;2.40;99.90;;;;;;5067077;28;20079;-72
2022/12/08 04:56:40;;;;;;;1.48;0.30;;;2.40;99.90;;;;;;5052095;28;20048;-72
2022/12/08 04:59:06;;;;;;;2.05;0.50;;;2.50;99.90;;;;;;5052804;28;20518;-72
2022/12/08 05:01:31;;;;;;;0.70;0.30;;;2.40;99.90;;;;;;5063392;28;20085;-73
2022/12/08 05:03:57;;;;;;;0.60;0.13;;;2.50;99.90;;;;;;5069740;28;20492;-73
2022/12/08 05:06:23;;;;;;;1.15;0.10;;;2.40;99.90;;;;;;5058544;28;20040;-73
2022/12/08 05:08:49;;;;;;;0.43;0.17;;;2.50;99.90;;;;;;5053732;28;20475;-72
2022/12/08 05:11:14;;;;;;;1.58;0.17;;;2.30;99.90;;;;;;5054937;28;20048;-71
2022/12/08 05:13:40;;;;;;;0.57;0.10;;;2.30;99.90;;;;;;5057208;28;20047;-71
2022/12/08 05:16:09;;;;;;;0.47;0.15;;;2.30;99.90;;;;;;5039979;28;20037;-71
2022/12/08 05:18:36;;;;;;;0.77;0.10;;;2.40;99.90;;;;;;5051176;28;20053;-71
2022/12/08 05:21:03;;;;;;;0.40;0.05;;;2.30;99.90;;;;;;5068091;28;20052;-71
2022/12/08 05:23:29;;;;;;;0.47;0.00;;;2.30;99.90;;;;;;5071394;28;20036;-71
2022/12/08 05:25:55;;;;;;;0.55;0.10;;;2.40;99.90;;;;;;5058908;28;20510;-71
2022/12/08 05:28:21;;;;;;;0.82;0.20;;;2.30;99.90;;;;;;5053620;28;20090;-71
2022/12/08 05:30:46;;;;;;;2.72;0.32;;;2.30;99.90;;;;;;5051793;28;20052;-71
2022/12/08 05:33:12;;;;;;;2.17;0.30;;;2.40;99.90;;;;;;5050272;28;20045;-71
2022/12/08 05:35:38;;;;;;;1.52;0.20;;;2.30;99.90;;;;;;5036087;28;20128;-69
2022/12/08 05:38:05;;;;;;;0.75;0.20;;;2.20;99.90;;;;;;5053765;28;20040;-71
2022/12/08 05:40:31;;;;;;;0.95;0.20;;;2.20;99.90;;;;;;5056308;28;20049;-72
2022/12/08 05:42:56;;;;;;;0.20;0.10;;;2.20;99.90;;;;;;5052184;28;20098;-72
2022/12/08 05:45:22;;;;;;;0.53;0.10;;;2.20;99.90;;;;;;5046746;28;20346;-72
2022/12/08 05:47:47;;;;;;;0.25;0.20;;;2.00;99.90;;;;;;5046461;28;20307;-72
2022/12/08 05:50:13;;;;;;;0.55;0.15;;;2.00;99.90;;;;;;5058449;28;20047;-72
2022/12/08 05:52:39;;;;;;;0.52;0.10;;;2.10;99.90;;;;;;5056498;28;20071;-73
2022/12/08 05:55:05;;;;;;;0.00;0.00;;;1.90;99.90;;;;;;5039862;28;20040;-74
2022/12/08 05:57:31;;;;;;;1.00;0.20;;;1.90;99.90;;;;;;5055027;28;20045;-74
2022/12/08 05:59:58;;;;;;;0.63;0.15;;;1.90;99.90;;;;;;5054293;28;20165;-74
2022/12/08 06:02:24;;;;;;;0.20;0.10;;;2.00;99.90;;;;;;5051483;28;20041;-70
2022/12/08 06:04:50;;;;;;;1.10;0.30;;;2.00;99.90;;;;;;5053039;28;20033;-70
2022/12/08 06:07:16;;;;;;;0.20;0.13;;;1.70;99.90;;;;;;5050923;28;20495;-70
2022/12/08 06:09:42;;;;;;;0.30;0.10;;;1.90;99.90;;;;;;5053405;28;20048;-70
2022/12/08 06:12:10;;;;;;;0.47;0.10;;;1.90;99.90;;;;;;5060550;28;20408;-70
2022/12/08 06:14:39;;;;;;;0.45;0.10;;;1.70;99.90;;;;;;5081545;28;20079;-70
2022/12/08 06:17:05;;;;;;;0.28;0.10;;;1.90;99.90;;;;;;5037502;28;20045;-71
2022/12/08 06:19:30;;;;;;;0.47;0.13;;;1.90;99.90;;;;;;5060418;28;20572;-70
2022/12/08 06:21:56;;;;;;;0.47;0.10;;;1.70;99.90;;;;;;5069813;28;20062;-69
2022/12/08 06:24:22;;;;;;;0.95;0.10;;;1.90;99.90;;;;;;5056676;28;20033;-70
2022/12/08 06:26:48;;;;;;;0.00;0.00;;;1.70;99.90;;;;;;5029543;28;20436;-69
2022/12/08 06:29:14;;;;;;;0.25;0.10;;;1.80;99.90;;;;;;5054807;28;20036;-69
2022/12/08 06:31:39;;;;;;;0.00;0.00;;;1.60;99.90;;;;;;5065221;28;20045;-68
2022/12/08 06:34:05;;;;;;;0.00;0.00;;;1.60;99.90;;;;;;5053796;28;20122;-69
2022/12/08 06:36:31;;;;;;;0.10;0.08;;;1.60;99.90;;;;;;5051259;28;20047;-70
2022/12/08 06:38:57;;;;;;;0.45;0.20;;;1.60;99.90;;;;;;5035220;28;20095;-68
2022/12/08 06:41:23;;;;;;;0.35;0.17;;;1.60;99.90;;;;;;5060997;28;20044;-68
2022/12/08 06:43:49;;;;;;;0.10;0.08;;;1.70;99.90;;;;;;5054120;28;20033;-68
2022/12/08 06:46:17;;;;;;;0.38;0.10;;;1.60;99.90;;;;;;5059170;28;20098;-68
2022/12/08 06:48:44;;;;;;;0.93;0.13;;;1.60;99.90;;;;;;5056271;28;20033;-69
2022/12/08 06:51:12;;;;;;;0.05;0.05;;;1.60;99.90;;;;;;5053312;28;20430;-69
2022/12/08 06:53:38;;;;;;;0.00;0.00;;;1.50;99.90;;;;;;5054381;28;20037;-69
2022/12/08 06:56:04;;;;;;;0.20;0.10;;;1.40;99.90;;;;;;5054902;28;20047;-70
2022/12/08 06:58:30;;;;;;;0.13;0.03;;;1.50;99.90;;;;;;5062821;28;20064;-69
2022/12/08 07:00:56;;;;;;;0.00;0.00;;;1.40;99.90;;;;;;5064168;28;20115;-71
2022/12/08 07:03:22;;;;;;;0.10;0.10;;;1.40;99.90;;;;;;5039455;28;20047;-71
2022/12/08 07:05:47;;;;;;;0.10;0.00;;;1.50;99.90;;;;;;5057497;28;20056;-69
2022/12/08 07:08:13;;;;;;;0.00;0.00;;;1.40;99.90;;;;;;5036232;28;20040;-70
2022/12/08 07:10:39;;;;;;;0.00;0.00;;;1.40;99.90;;;;;;5054150;28;20404;-70
2022/12/08 07:13:05;;;;;;;0.10;0.10;;;1.30;99.90;;;;;;5057731;28;20464;-70
2022/12/08 07:15:30;;;;;;;0.30;0.10;;;1.10;99.90;;;;;;5033539;28;20036;-70
2022/12/08 07:17:56;;;;;;;0.20;0.20;;;1.10;99.90;;;;;;5032153;28;20048;-71
2022/12/08 07:20:22;;;;;;;0.20;0.20;;;1.10;99.90;;;;;;5066347;28;20466;-69
2022/12/08 07:22:51;;;;;;;0.20;0.20;;;1.20;99.90;;;;;;5051787;28;20083;-70
2022/12/08 07:25:18;;;;;;;0.75;0.45;;;1.20;99.90;;;;;;5068621;28;20127;-70
2022/12/08 07:27:44;;;;;;;0.95;0.40;;;1.00;99.90;;;;;;5068464;28;20472;-70
2022/12/08 07:30:10;;;;;;;0.30;0.30;;;0.90;99.90;;;;;;5068590;28;20080;-70
2022/12/08 07:32:37;;;;;;;0.82;0.40;;;0.90;99.90;;;;;;5046700;28;20084;-69
2022/12/08 07:35:03;;;;;;;0.45;0.38;;;0.90;99.90;;;;;;5064744;28;20488;-69
2022/12/08 07:37:29;;;;;;;0.93;0.30;;;0.90;99.90;;;;;;5068185;28;20500;-69
2022/12/08 07:39:55;;;;;;;0.20;0.20;;;1.10;99.90;;;;;;5065776;28;20041;-69
2022/12/08 07:42:20;;;;;;;0.40;0.30;;;1.10;99.90;;;;;;5062714;28;20044;-69
2022/12/08 07:44:46;;;;;;;0.57;0.33;;;0.90;99.90;;;;;;5046198;28;20376;-69
2022/12/08 07:47:12;;;;;;;0.30;0.27;;;1.10;99.90;;;;;;5058602;28;20278;-70
2022/12/08 07:49:38;;;;;;;0.70;0.30;;;0.90;99.90;;;;;;5060789;28;20391;-68
2022/12/08 07:52:04;;;;;;;2.00;0.60;;;1.00;99.90;;;;;;5062361;28;20390;-68
2022/12/08 07:54:30;;;;;;;1.00;0.40;;;0.90;99.90;;;;;;5062556;28;20361;-69
2022/12/08 07:56:59;;;;;;;1.03;0.70;;;0.90;99.90;;;;;;5046757;28;20299;-69
2022/12/08 07:59:25;;;;;;;0.93;0.70;;;1.00;99.90;;;;;;5062432;28;20285;-68
2022/12/08 08:01:51;;;;;;;1.77;0.73;;;0.90;99.90;;;;;;5044175;28;20119;-68
2022/12/08 08:04:17;;;;;;;1.17;0.60;;;1.10;99.90;;;;;;5046068;28;20488;-67
2022/12/08 08:06:42;;;;;;;0.93;0.50;;;0.80;99.90;;;;;;5062058;28;20044;-68
2022/12/08 08:09:09;;;;;;;0.47;0.45;;;1.10;99.90;;;;;;5061475;28;20069;-68
2022/12/08 08:11:35;;;;;;;;;;;1.10;99.90;;;;;;5060873;28;20044;-69
2022/12/08 08:14:01;;;;;;;0.32;0.30;;;0.90;99.90;;;;;;5062276;28;19993;-68
2022/12/08 08:16:27;;;;;;;0.40;0.30;;;0.90;99.90;;;;;;5064054;28;20049;-68
2022/12/08 08:18:52;;;;;;;0.30;0.20;;;1.10;99.90;;;;;;5062164;28;20048;-68
2022/12/08 08:21:19;;;;;;;0.60;0.50;;;0.80;99.90;;;;;;5064297;28;20036;-68
2022/12/08 08:23:45;;;;;;;0.75;0.40;;;0.90;99.90;;;;;;5054949;28;20044;-68
2022/12/08 08:26:11;;;;;;;0.63;0.60;;;1.00;99.90;;;;;;5069425;28;20044;-69
2022/12/08 08:28:37;;;;;;;1.08;0.52;;;1.00;99.90;;;;;;5068724;28;20028;-69
2022/12/08 08:31:03;;;;;;;1.48;0.80;;;1.10;99.90;;;;;;5063855;28;20506;-69
2022/12/08 08:33:29;;;;;;;2.08;1.00;;;1.50;99.90;;;;;;5063465;28;20091;-69
2022/12/08 08:35:55;;;;;;;3.78;1.10;;;1.40;99.90;;;;;;5067601;28;20443;-68
2022/12/08 08:38:21;;;;;;;1.37;0.67;;;1.60;99.90;;;;;;5054731;28;20048;-68
2022/12/08 08:40:46;;;;;;;1.00;0.80;;;1.60;99.90;;;;;;5065113;28;20394;-69
2022/12/08 08:43:27;;;;;;;1.67;1.17;;;1.80;99.90;;;;;;5070777;28;20128;-78
2022/12/08 08:46:03;;;;;;;2.33;1.00;;;1.60;99.90;;;;;;5046089;28;20284;-69
2022/12/08 08:48:30;;;;;;;1.73;1.15;;;1.40;99.90;;;;;;5048134;28;20071;-69
2022/12/08 08:50:57;;;;;;;1.42;1.08;;;1.70;99.90;;;;;;5063168;28;20181;-69
2022/12/08 08:53:23;;;;;;;0.88;0.77;;;1.40;99.90;;;;;;5069811;28;20200;-67
2022/12/08 08:55:49;;;;;;;1.52;0.98;;;1.60;99.90;;;;;;5070758;28;20048;-68
2022/12/08 08:58:15;;;;;;;0.90;0.80;;;1.40;99.90;;;;;;5067908;28;20087;-68
2022/12/08 09:00:42;;;;;;;1.10;0.70;;;1.30;99.90;;;;;;5044930;28;20076;-68
2022/12/08 09:03:08;;;;;;;0.73;0.50;;;1.40;99.90;;;;;;5043162;28;20040;-69
2022/12/08 09:05:36;;;;;;;0.52;0.50;;;1.40;99.90;;;;;;5066249;28;20045;-69
2022/12/08 09:08:01;;;;;;;0.70;0.50;;;1.50;99.90;;;;;;5057757;28;20143;-68
2022/12/08 09:10:27;;;;;;;1.40;0.40;;;1.60;99.90;;;;;;5070607;28;20047;-68
2022/12/08 09:12:53;;;;;;;2.13;0.50;;;1.70;99.90;;;;;;5047105;28;20041;-68
2022/12/08 09:15:19;;;;;;;0.88;0.60;;;2.00;99.90;;;;;;5044626;28;20056;-68
2022/12/08 09:17:45;;;;;;;0.70;0.57;;;1.90;99.90;;;;;;5070747;28;20052;-67
2022/12/08 09:20:11;;;;;;;0.85;0.50;;;2.20;99.90;;;;;;5070232;28;20522;-67
2022/12/08 09:22:37;;;;;;;1.95;0.60;;;2.30;99.90;;;;;;5054499;28;20071;-69
2022/12/08 09:25:02;;;;;;;0.80;0.60;;;2.30;99.90;;;;;;5070345;28;20523;-69
2022/12/08 09:56:47;;;;;;;2.63;0.60;;;2.70;99.90;;;;;;5153332;23;20060;-74
2022/12/08 09:59:31;;;;;;;2.53;0.60;;;2.90;99.90;;;;;;4897739;29;20079;-74
2022/12/08 10:01:59;;;;;;;2.30;0.60;;;2.80;99.90;;;;;;4914001;29;20048;-74
2022/12/08 10:04:35;;;;;;;1.50;0.70;;;2.80;99.90;;;;;;4912702;29;20063;-74
2022/12/08 10:07:29;;;;;;;3.17;0.63;;;2.70;99.90;;;;;;4913953;29;20186;-74
2022/12/08 10:10:16;;;;;;;0.85;0.50;;;2.70;99.90;;;;;;4912757;29;20056;-74
2022/12/08 10:13:06;;;;;;;0.52;0.50;;;2.70;99.90;;;;;;4909715;29;20055;-74
2022/12/08 10:16:10;;;;;;;0.60;0.30;;;2.60;99.90;;;;;;4893943;29;20104;-74
2022/12/08 10:18:36;;;;;;;1.80;0.43;;;2.60;99.90;;;;;;4913090;29;20135;-74
2022/12/08 10:21:21;;;;;;;0.40;0.30;;;2.70;99.90;;;;;;4909414;29;20040;-74
2022/12/08 10:23:51;;;;;;;0.43;0.40;;;2.60;99.90;;;;;;4912815;29;20039;-74
2022/12/08 10:26:20;;;;;;;0.80;0.47;;;2.60;99.90;;;;;;4912378;29;20086;-74
2022/12/08 10:28:46;;;;;;;1.35;0.50;;;2.70;99.90;;;;;;4910799;29;20054;-74
2022/12/08 10:31:21;;;;;;;2.13;0.57;;;2.60;99.90;;;;;;4898011;29;20043;-75
2022/12/08 10:33:53;;;;;;;2.05;0.60;;;2.80;99.90;;;;;;4913750;29;20063;-75
2022/12/08 10:36:19;;;;;;;2.03;0.50;;;2.70;99.90;;;;;;4900972;29;20147;-75
2022/12/08 10:38:44;;;;;;;0.73;0.30;;;2.90;99.90;;;;;;4896930;29;20482;-75
2022/12/08 10:41:12;;;;;;;0.65;0.38;;;3.00;99.90;;;;;;4911760;29;20776;-74
2022/12/08 10:43:42;;;;;;;0.32;0.30;;;3.10;99.90;;;;;;4912786;29;20051;-74
2022/12/08 10:46:24;;;;;;;1.65;0.38;;;3.20;99.90;;;;;;4902690;29;20044;-74
2022/12/08 10:49:08;;;;;;;1.10;0.45;;;3.60;99.90;;;;;;4905611;29;20091;-75
2022/12/08 10:51:37;;;;;;;2.20;0.50;;;3.80;99.90;;;;;;4897850;29;20127;-75
2022/12/08 10:54:05;;;;;;;3.15;0.55;;;3.90;99.90;;;;;;4918456;29;20086;-75
2022/12/08 10:56:31;;;;;;;1.02;0.40;;;4.10;99.90;;;;;;4900576;29;20058;-74
2022/12/08 10:59:05;;;;;;;;;;;4.10;99.90;;;;;;4886676;29;20470;-74
2022/12/08 11:01:38;;;;;;;1.13;0.40;;;4.10;99.90;;;;;;4903161;29;19977;-74
2022/12/08 11:04:17;;;;;;;0.80;0.40;;;4.00;99.90;;;;;;4901851;29;20055;-75
2022/12/08 11:06:44;;;;;;;0.95;0.40;;;3.90;99.90;;;;;;4877174;29;20052;-74
2022/12/08 11:09:18;;;;;;;0.57;0.20;;;4.00;99.90;;;;;;4897318;29;20482;-75
2022/12/08 11:11:51;;;;;;;0.70;0.30;;;4.00;99.90;;;;;;4896613;29;20131;-74
2022/12/08 11:14:28;;;;;;;1.52;0.25;;;4.00;99.90;;;;;;4890940;29;20104;-74
2022/12/08 11:17:08;;;;;;;1.55;0.38;;;4.00;99.90;;;;;;4909619;29;20044;-77
2022/12/08 11:19:44;;;;;;;0.70;0.40;;;4.20;99.90;;;;;;4900188;29;20044;-74
2022/12/08 11:22:40;;;;;;;1.20;0.40;;;4.30;99.90;;;;;;4894221;29;20130;-74
2022/12/08 11:25:18;;;;;;;2.85;0.38;;;4.70;99.90;;;;;;4886555;29;20535;-74
2022/12/08 11:27:50;;;;;;;1.10;0.30;;;5.10;99.90;;;;;;4898514;29;20048;-74
2022/12/08 11:30:23;;;;;;;1.05;0.50;;;5.30;99.90;;;;;;4900576;29;20048;-75
2022/12/08 11:33:13;;;;;;;2.08;0.50;;;5.30;99.90;;;;;;4892873;29;20104;-75
2022/12/08 11:35:42;;;;;;;2.38;0.80;;;5.70;99.90;;;;;;4898394;29;20051;-75
2022/12/08 11:38:11;;;;;;;2.25;0.55;;;5.90;99.90;;;;;;4900680;29;20048;-75
2022/12/08 11:40:39;;;;;;;1.38;0.60;;;5.90;99.90;;;;;;4883543;29;20036;-75
2022/12/08 11:43:24;;;;;;;0.90;0.38;;;6.00;99.90;;;;;;4882344;29;20493;-75
2022/12/08 11:46:03;;;;;;;1.10;0.40;;;5.80;99.90;;;;;;4896730;29;20066;-75
2022/12/08 11:48:38;;;;;;;1.02;0.30;;;5.50;99.90;;;;;;4896302;29;20048;-75
2022/12/08 11:51:18;;;;;;;1.10;0.35;;;5.10;99.90;;;;;;4898813;29;20052;-75
2022/12/08 11:53:49;;;;;;;2.00;0.70;;;4.70;99.90;;;;;;4909944;29;20040;-75
2022/12/08 11:56:24;;;;;;;1.27;0.70;;;4.50;99.90;;;;;;4899340;29;20171;-75
2022/12/08 11:58:58;;;;;;;1.63;0.95;;;4.40;99.90;;;;;;4902915;29;20052;-75
2022/12/08 12:01:25;;;;;;;1.70;1.15;;;4.40;99.90;;;;;;4898459;29;20046;-75
2022/12/08 12:04:00;;;;;;;2.45;0.90;;;4.30;99.90;;;;;;4898471;29;20051;-75
2022/12/08 12:07:13;;;;;;;2.38;1.02;;;4.30;99.90;;;;;;4898806;29;20131;-75
2022/12/08 12:10:04;;;;;;;0.70;0.52;;;4.20;99.90;;;;;;4897859;29;20040;-75
2022/12/08 12:13:01;;;;;;;1.08;0.60;;;4.20;99.90;;;;;;4888458;29;20084;-75
2022/12/08 12:15:26;;;;;;;1.85;1.15;;;4.40;99.90;;;;;;4896929;29;20043;-74
2022/12/08 12:18:11;;;;;;;2.57;1.67;;;4.80;99.90;;;;;;4900617;29;20040;-75
2022/12/08 12:20:41;;;;;;;3.10;1.70;;;5.20;99.90;;;;;;4895561;29;20080;-69
2022/12/08 12:23:30;;;;;;;1.30;0.90;;;5.50;99.90;;;;;;4895920;29;20108;-69
2022/12/08 12:26:02;;;;;;;0.68;0.50;;;5.60;99.90;;;;;;4891173;29;20476;-70
2022/12/08 12:28:36;;;;;;;1.42;0.60;;;5.90;99.90;;;;;;4912159;29;20483;-69
2022/12/08 12:31:07;;;;;;;0.73;0.30;;;5.90;99.90;;;;;;4894802;29;20590;-69
2022/12/08 12:33:33;;;;;;;0.73;0.32;;;5.90;99.90;;;;;;4899620;29;20421;-70
2022/12/08 12:36:04;;;;;;;0.50;0.20;;;5.80;99.90;;;;;;4890461;29;20044;-69
2022/12/08 12:39:00;;;;;;;0.32;0.15;;;5.70;99.90;;;;;;4896722;29;20048;-69
2022/12/08 12:41:52;;;;;;;0.38;0.20;;;5.80;99.90;;;;;;4897721;29;20047;-69
2022/12/08 12:44:18;;;;;;;0.20;0.10;;;5.80;99.90;;;;;;4900223;29;20055;-70
2022/12/08 12:46:49;;;;;;;0.23;0.00;;;5.80;99.90;;;;;;4901735;29;20036;-69
2022/12/08 12:49:42;;;;;;;1.10;0.20;;;5.90;99.90;;;;;;4899203;29;20404;-70
2022/12/08 12:52:20;;;;;;;0.70;0.00;;;5.90;99.90;;;;;;4894794;29;20052;-70
2022/12/08 12:54:48;;;;;;;1.35;0.20;;;6.00;99.90;;;;;;4905048;29;20048;-68
2022/12/08 12:57:19;;;;;;;0.55;0.08;;;6.00;99.90;;;;;;4897557;29;20753;-68
2022/12/08 12:59:51;;;;;;;0.75;0.10;;;6.00;99.90;;;;;;4892150;29;20036;-68
2022/12/08 13:02:21;;;;;;;0.40;0.20;;;6.00;99.90;;;;;;4879874;29;20402;-69
2022/12/08 13:05:16;;;;;;;1.55;0.30;;;5.80;99.90;;;;;;4897481;29;20166;-69
2022/12/08 13:08:01;;;;;;;0.15;0.10;;;5.50;99.90;;;;;;4875207;29;20056;-68
2022/12/08 13:10:38;;;;;;;0.10;0.10;;;5.40;99.90;;;;;;4891904;29;20131;-68
2022/12/08 13:13:15;;;;;;;0.35;0.10;;;5.20;99.90;;;;;;4892269;29;20063;-68
2022/12/08 13:15:50;;;;;;;0.38;0.10;;;5.10;99.90;;;;;;4887112;29;20080;-69
2022/12/08 13:18:39;;;;;;;0.80;0.28;;;5.00;99.90;;;;;;4896214;29;20059;-68
2022/12/08 13:21:15;;;;;;;0.28;0.10;;;4.90;99.90;;;;;;4892615;29;20045;-68
2022/12/08 13:23:44;;;;;;;0.57;0.20;;;4.80;99.90;;;;;;4892406;29;20441;-68
2022/12/08 13:26:13;;;;;;;0.90;0.30;;;4.70;99.90;;;;;;4891312;29;20125;-68
2022/12/08 13:28:57;;;;;;;0.30;0.10;;;4.60;99.90;;;;;;4901412;29;20126;-68
2022/12/08 13:31:39;;;;;;;0.20;0.03;;;4.50;99.90;;;;;;4893694;29;20112;-67
2022/12/08 13:34:18;;;;;;;0.00;0.00;;;4.50;99.90;;;;;;4900459;29;20166;-68
2022/12/08 13:37:14;;;;;;;0.30;0.10;;;4.40;99.90;;;;;;4898039;29;20052;-69
2022/12/08 13:39:49;;;;;;;0.43;0.13;;;4.30;99.90;;;;;;4866775;29;20047;-69
2022/12/08 13:42:29;;;;;;;0.10;0.10;;;4.20;99.90;;;;;;4880680;29;20482;-69
2022/12/08 13:45:10;;;;;;;0.00;0.00;;;4.10;99.90;;;;;;4899387;29;20036;-68
2022/12/08 13:48:06;;;;;;;0.57;0.08;;;4.10;99.90;;;;;;4879570;29;20112;-69
2022/12/08 13:50:39;;;;;;;0.10;0.10;;;4.20;99.90;;;;;;4881136;29;20495;-68